Flight Number: EUR2042 Duration: 4:00
Departure: Madeira Funchal (LPMA) at 18:15 Distance: 1594 Nm
Arrival: Munich Int'l (EDDM) at 22:15 Equipment: B737

Weather Information
Aeroporto Da Madeira, Portugal (LPMA) 32-41-52N 016-46-28W Nov 19, 2017 - 10:30 PM EST / 2017.11.20 0330 UTC
Wind: from the ENE (070 degrees) at 7 MPH (6 KT) (direction variable):0
Visibility: greater than 7 mile(s):0
Sky conditions: mostly cloudy Temperature: 66 F (19 C) Dew Point: 55 F (13 C) Relative Humidity: 68% Pressure (altimeter): 30.09 in. Hg (1019 hPa)
ob: LPMA 200330Z 07006KT 360V140 9999 BKN015 19/13 Q1019 cycle: 3
Sunrise: 07:45 Sunset: 18:00 (UTC)

Munchen, Germany (EDDM) 48-21N 011-47E Nov 19, 2017 - 10:50 PM EST / 2017.11.20 0350 UTC
Wind: from the W (260 degrees) at 14 MPH (12 KT):0
Visibility: greater than 7 mile(s):0 Temperature: 35 F (2 C)
Windchill: 26 F (-3 C):1 Dew Point: 30 F (-1 C) Relative Humidity: 80% Pressure (altimeter): 30.15 in. Hg (1021 hPa)
ob: EDDM 200350Z 26012KT CAVOK 02/M01 Q1021 NOSIG cycle: 4
Sunrise: 06:32 Sunset: 15:24 (UTC)

TAF:2017/11/19 18:27 TAF EDDM 191700Z 1918/2024 26013KT 9999 FEW014 BKN040 TEMPO 1918/2003 31015G25KT PROB30 TEMPO 1918/2003 2000 SHSNRA BKN014CB BECMG 2015/2018 23007KT TEMPO 2018/2024 RA BECMG 2021/2024 25015G25KT

Previous Pireps for this route
Date Aircraft Flight time Fuel used Landing rate On time
2013-01-31B7373.54294480Yes
2013-07-23B73704.1835863-354No
2013-09-15B7374.04277000No
2014-10-20B7374.5125321-222No
2015-03-14B73704.2525118-384Yes
2016-01-18B73704.12-59-161Charter
2017-01-20B73704.0922227-285Charter
(pireps marked green are flown by you)

Route map